Aviation Digital Data Service (ADDS)

Output produced by METARs form (1536 UTC 27 May 2017)
found at http://aviationweather.gov/adds/metars/
 
KBWI 271449Z 2715/2818 VRB03KT P6SM BKN060 
     FM271530 18004KT 4SM -SHRA OVC050 
     FM271900 09004KT P6SM BKN050 
     FM280300 04005KT P6SM BKN025 
     FM280500 04004KT P6SM OVC015 
     FM281200 VRB03KT P6SM OVC025 
     FM281400 09005KT P6SM BKN035